createdAt,value
2022-08-28T00:02:25.004Z,14.13
2022-08-28T00:04:51.726Z,14.10
2022-08-28T00:07:18.370Z,14.09
2022-08-28T00:09:44.908Z,14.08
2022-08-28T00:12:12.365Z,14.06
2022-08-28T00:14:39.493Z,14.05
2022-08-28T00:17:05.980Z,14.06
2022-08-28T00:19:35.514Z,14.05
2022-08-28T00:22:05.728Z,14.01
2022-08-28T00:24:32.109Z,13.98
2022-08-28T00:27:17.244Z,13.97
2022-08-28T00:29:45.138Z,13.92
2022-08-28T00:32:11.646Z,13.90
2022-08-28T00:34:38.922Z,13.86
2022-08-28T00:37:06.306Z,13.86
2022-08-28T00:39:32.931Z,13.81
2022-08-28T00:41:59.457Z,13.82
2022-08-28T00:44:27.702Z,13.82
2022-08-28T00:46:57.125Z,13.81
2022-08-28T00:49:32.330Z,13.78
2022-08-28T00:52:11.941Z,13.76
2022-08-28T00:54:45.708Z,13.72
2022-08-28T00:57:32.469Z,13.72
2022-08-28T00:59:58.981Z,13.71
2022-08-28T01:02:27.403Z,13.71
2022-08-28T01:04:55.509Z,13.71
2022-08-28T01:07:23.158Z,13.70
2022-08-28T01:09:54.001Z,13.68
2022-08-28T01:12:27.897Z,13.64
2022-08-28T01:14:59.869Z,13.64
2022-08-28T01:17:28.953Z,13.64
2022-08-28T01:19:58.803Z,13.63
2022-08-28T01:22:37.234Z,13.60
2022-08-28T01:25:07.357Z,13.56
2022-08-28T01:27:34.785Z,13.55
2022-08-28T01:30:01.657Z,13.55
2022-08-28T01:32:36.254Z,13.53
2022-08-28T01:35:06.042Z,13.52
2022-08-28T01:37:32.428Z,13.51
2022-08-28T01:40:01.123Z,13.51
2022-08-28T01:42:27.567Z,13.49
2022-08-28T01:44:54.215Z,13.47
2022-08-28T01:47:21.585Z,13.44
2022-08-28T01:49:48.254Z,13.43
2022-08-28T01:52:14.708Z,13.41
2022-08-28T01:54:42.206Z,13.35
2022-08-28T01:57:08.842Z,13.30
2022-08-28T01:59:35.319Z,13.23
2022-08-28T02:02:01.704Z,13.20
2022-08-28T02:04:32.304Z,13.17
2022-08-28T02:06:59.238Z,13.17
2022-08-28T02:09:25.693Z,13.16
2022-08-28T02:11:52.634Z,13.15
2022-08-28T02:14:19.253Z,13.13
2022-08-28T02:16:46.508Z,13.09
2022-08-28T02:19:12.887Z,13.07
2022-08-28T02:21:40.383Z,13.03
2022-08-28T02:24:06.973Z,12.98
2022-08-28T02:26:33.364Z,12.93
2022-08-28T02:28:59.756Z,12.86
2022-08-28T02:31:27.242Z,12.82
2022-08-28T02:33:53.675Z,12.79
2022-08-28T02:36:22.595Z,12.76
2022-08-28T02:38:55.326Z,12.72
2022-08-28T02:41:23.921Z,12.68
2022-08-28T02:43:50.470Z,12.65
2022-08-28T02:46:17.096Z,12.62
2022-08-28T02:48:43.625Z,12.59
2022-08-28T02:51:13.308Z,12.60
2022-08-28T02:53:40.872Z,12.57
2022-08-28T02:56:07.428Z,12.53
2022-08-28T02:58:35.340Z,12.50
2022-08-28T03:01:05.208Z,12.48
2022-08-28T03:03:32.465Z,12.43
2022-08-28T03:06:03.157Z,12.38
2022-08-28T03:08:32.124Z,12.36
2022-08-28T03:10:59.796Z,12.31
2022-08-28T03:13:27.360Z,12.31
2022-08-28T03:15:55.745Z,12.31
2022-08-28T03:18:24.014Z,12.29
2022-08-28T03:20:50.368Z,12.27
2022-08-28T03:23:28.669Z,12.26
2022-08-28T03:26:10.797Z,12.21
2022-08-28T03:28:45.375Z,12.18
2022-08-28T03:31:14.861Z,12.15
2022-08-28T03:33:42.717Z,12.10
2022-08-28T03:36:11.520Z,12.08
2022-08-28T03:38:37.949Z,12.06
2022-08-28T03:41:04.812Z,12.03
2022-08-28T03:43:31.448Z,12.00
2022-08-28T03:46:00.786Z,11.98
2022-08-28T03:48:29.855Z,11.99
2022-08-28T03:50:56.318Z,11.99
2022-08-28T03:53:25.653Z,11.97
2022-08-28T03:55:52.650Z,11.92
2022-08-28T03:58:20.130Z,11.86
2022-08-28T04:00:47.093Z,11.81
2022-08-28T04:03:14.114Z,11.77
2022-08-28T04:05:42.698Z,11.76
2022-08-28T04:08:10.025Z,11.75
2022-08-28T04:10:36.671Z,11.74
2022-08-28T04:13:03.385Z,11.71
2022-08-28T04:15:29.991Z,11.70
2022-08-28T04:17:56.500Z,11.66
2022-08-28T04:20:22.898Z,11.64
2022-08-28T04:22:49.589Z,11.63
2022-08-28T04:25:22.245Z,11.60
2022-08-28T04:27:50.291Z,11.57
2022-08-28T04:30:17.316Z,11.54
2022-08-28T04:32:43.686Z,11.53
2022-08-28T04:35:12.366Z,11.50
2022-08-28T04:37:40.184Z,11.53
2022-08-28T04:40:09.804Z,11.51
2022-08-28T04:42:38.030Z,11.51
2022-08-28T04:45:06.219Z,11.47
2022-08-28T04:47:38.727Z,11.46
2022-08-28T04:50:06.752Z,11.43
2022-08-28T04:52:33.188Z,11.43
2022-08-28T04:54:59.581Z,11.44
2022-08-28T04:57:26.174Z,11.45
2022-08-28T04:59:52.785Z,11.47
2022-08-28T05:02:19.276Z,11.47
2022-08-28T05:04:45.722Z,11.47
2022-08-28T05:07:12.081Z,11.45
2022-08-28T05:09:38.919Z,11.46
2022-08-28T05:12:05.901Z,11.45
2022-08-28T05:14:32.456Z,11.45
2022-08-28T05:16:59.052Z,11.47
2022-08-28T05:19:27.170Z,11.50
2022-08-28T05:21:54.288Z,11.55
2022-08-28T05:24:21.840Z,11.59
2022-08-28T05:26:48.494Z,11.66
2022-08-28T05:29:16.696Z,11.72
2022-08-28T05:31:43.442Z,11.75
2022-08-28T05:34:10.421Z,11.81
2022-08-28T05:36:38.340Z,11.87
2022-08-28T05:39:08.701Z,11.92
2022-08-28T05:41:35.495Z,11.99
2022-08-28T05:44:05.451Z,12.07
2022-08-28T05:46:32.341Z,12.15
2022-08-28T05:49:00.294Z,12.23
2022-08-28T05:51:27.531Z,12.32
2022-08-28T05:53:55.097Z,12.51
2022-08-28T05:56:25.508Z,13.98
2022-08-28T05:58:52.330Z,15.69
2022-08-28T06:01:21.924Z,16.91
2022-08-28T06:03:56.767Z,17.72
2022-08-28T06:06:24.592Z,18.28
2022-08-28T06:08:58.814Z,17.80
2022-08-28T06:11:26.549Z,16.73
2022-08-28T06:13:53.137Z,16.08
2022-08-28T06:16:19.910Z,15.78
2022-08-28T06:18:46.885Z,15.65
2022-08-28T06:21:13.800Z,15.62
2022-08-28T06:23:41.042Z,16.24
2022-08-28T06:26:07.444Z,17.58
2022-08-28T06:28:34.229Z,18.14
2022-08-28T06:31:23.426Z,17.58
2022-08-28T06:33:49.673Z,17.04
2022-08-28T06:36:16.023Z,16.92
2022-08-28T06:38:46.449Z,16.92
2022-08-28T06:41:15.437Z,16.84
2022-08-28T06:43:42.046Z,16.79
2022-08-28T06:46:08.562Z,16.84
2022-08-28T06:48:35.023Z,17.07
2022-08-28T06:51:01.531Z,17.33
2022-08-28T06:53:30.622Z,17.52
2022-08-28T06:55:59.477Z,17.70
2022-08-28T06:58:27.825Z,17.85
2022-08-28T07:01:03.093Z,17.86
2022-08-28T07:03:30.427Z,17.89
2022-08-28T07:05:58.541Z,17.91
2022-08-28T07:08:26.815Z,17.93
2022-08-28T07:10:53.863Z,18.00
2022-08-28T07:13:21.957Z,18.05
2022-08-28T07:15:48.883Z,18.17
2022-08-28T07:18:17.315Z,18.28
2022-08-28T07:20:45.065Z,18.25
2022-08-28T07:23:11.534Z,18.39
2022-08-28T07:25:41.903Z,18.51
2022-08-28T07:28:09.093Z,18.63
2022-08-28T07:30:35.701Z,18.72
2022-08-28T07:33:02.287Z,18.83
2022-08-28T07:35:28.695Z,18.98
2022-08-28T07:37:55.048Z,19.11
2022-08-28T07:40:22.239Z,19.20
2022-08-28T07:43:07.400Z,19.28
2022-08-28T07:45:35.683Z,19.36
2022-08-28T07:48:11.329Z,19.52
2022-08-28T07:50:37.934Z,19.67
2022-08-28T07:53:04.424Z,19.86
2022-08-28T07:55:31.679Z,20.12
2022-08-28T07:57:58.052Z,20.30
2022-08-28T08:00:24.638Z,20.41
2022-08-28T08:02:50.987Z,20.60
2022-08-28T08:05:17.709Z,20.84
2022-08-28T08:07:44.074Z,21.00
2022-08-28T08:10:14.903Z,21.13
2022-08-28T08:12:46.171Z,21.36
2022-08-28T08:15:13.136Z,21.67
2022-08-28T08:17:39.697Z,21.84
2022-08-28T08:20:08.371Z,21.97
2022-08-28T08:22:35.163Z,22.03
2022-08-28T08:25:04.813Z,22.22
2022-08-28T08:27:32.679Z,22.30
2022-08-28T08:29:59.093Z,22.42
2022-08-28T08:32:25.671Z,22.57
2022-08-28T08:34:55.837Z,22.67
2022-08-28T08:37:22.865Z,22.71
2022-08-28T08:39:50.603Z,22.74
2022-08-28T08:42:26.281Z,22.80
2022-08-28T08:44:54.781Z,22.90
2022-08-28T08:47:47.662Z,22.96
2022-08-28T08:50:29.260Z,23.11
2022-08-28T08:53:20.100Z,23.32
2022-08-28T08:55:50.627Z,23.45
2022-08-28T08:58:28.781Z,23.62
2022-08-28T09:01:31.301Z,23.75
2022-08-28T09:04:10.123Z,23.79
2022-08-28T09:06:49.895Z,23.99
2022-08-28T09:09:36.838Z,24.01
2022-08-28T09:12:07.568Z,24.10
2022-08-28T09:14:53.014Z,24.16
2022-08-28T09:17:23.269Z,24.29
2022-08-28T09:19:49.671Z,24.64
2022-08-28T09:22:16.472Z,24.78
2022-08-28T09:24:43.620Z,24.78
2022-08-28T09:27:25.733Z,24.39
2022-08-28T09:30:07.260Z,24.05
2022-08-28T09:32:44.468Z,23.99
2022-08-28T09:35:28.128Z,23.80
2022-08-28T09:37:55.887Z,23.53
2022-08-28T09:40:47.595Z,23.56
2022-08-28T09:43:26.901Z,23.93
2022-08-28T09:45:59.503Z,24.51
2022-08-28T09:48:33.741Z,24.27
2022-08-28T09:51:05.478Z,23.86
2022-08-28T09:53:51.728Z,23.71
2022-08-28T09:56:25.780Z,23.49
2022-08-28T09:59:00.063Z,23.50
2022-08-28T10:01:48.868Z,23.36
2022-08-28T10:04:39.630Z,22.86
2022-08-28T10:07:25.728Z,23.13
2022-08-28T10:10:01.346Z,23.67
2022-08-28T10:12:35.198Z,23.35
2022-08-28T10:15:15.322Z,23.69
2022-08-28T10:17:48.555Z,24.27
2022-08-28T10:20:31.196Z,24.69
2022-08-28T10:23:17.767Z,25.03
2022-08-28T10:26:07.433Z,25.46
2022-08-28T10:28:56.533Z,25.19
2022-08-28T10:31:37.128Z,25.38
2022-08-28T10:34:42.841Z,24.75
2022-08-28T10:37:24.472Z,24.53
2022-08-28T10:39:57.634Z,24.38
2022-08-28T10:42:35.922Z,24.15
2022-08-28T10:45:13.817Z,23.88
2022-08-28T10:47:48.269Z,23.99
2022-08-28T10:50:21.901Z,24.38
2022-08-28T10:53:03.863Z,24.30
2022-08-28T10:55:47.247Z,25.01
2022-08-28T10:58:24.390Z,25.34
2022-08-28T11:00:55.507Z,25.89
2022-08-28T11:03:34.535Z,25.98
2022-08-28T11:06:08.260Z,26.44
2022-08-28T11:08:36.908Z,26.04
2022-08-28T11:11:06.649Z,25.42
2022-08-28T11:13:51.261Z,25.51
2022-08-28T11:16:46.983Z,26.01
2022-08-28T11:19:42.094Z,26.58
2022-08-28T11:22:15.824Z,26.08
2022-08-28T11:24:47.947Z,25.64
2022-08-28T11:27:33.271Z,25.07
2022-08-28T11:30:15.169Z,24.83
2022-08-28T11:32:50.855Z,25.52
2022-08-28T11:35:20.157Z,25.99
2022-08-28T11:37:52.407Z,26.30
2022-08-28T11:40:27.944Z,26.76
2022-08-28T11:43:14.200Z,27.19
2022-08-28T11:45:43.102Z,27.17
2022-08-28T11:48:25.657Z,26.04
2022-08-28T11:50:57.009Z,25.33
2022-08-28T11:53:45.964Z,24.94
2022-08-28T11:56:31.147Z,25.75
2022-08-28T11:59:19.735Z,26.40
2022-08-28T12:01:48.718Z,26.27
2022-08-28T12:04:18.649Z,25.80
2022-08-28T12:06:44.992Z,25.42
2022-08-28T12:09:13.314Z,25.36
2022-08-28T12:11:42.030Z,25.79
2022-08-28T12:14:33.253Z,26.50
2022-08-28T12:17:00.038Z,26.35
2022-08-28T12:19:55.870Z,25.96
2022-08-28T12:22:26.338Z,26.58
2022-08-28T12:24:57.940Z,27.26
2022-08-28T12:27:25.697Z,27.74
2022-08-28T12:29:55.893Z,27.79
2022-08-28T12:32:43.546Z,27.31
2022-08-28T12:35:17.062Z,26.76
2022-08-28T12:38:00.928Z,26.23
2022-08-28T12:40:50.202Z,26.20
2022-08-28T12:43:28.569Z,26.70
2022-08-28T12:45:59.210Z,27.15
2022-08-28T12:48:32.293Z,27.46
2022-08-28T12:51:00.643Z,27.53
2022-08-28T12:53:47.670Z,27.01
2022-08-28T12:56:17.527Z,27.20
2022-08-28T12:58:45.627Z,27.51
2022-08-28T13:01:33.422Z,26.49
2022-08-28T13:04:04.335Z,26.31
2022-08-28T13:06:32.117Z,26.56
2022-08-28T13:09:04.824Z,26.83
2022-08-28T13:11:36.893Z,27.29
2022-08-28T13:14:04.961Z,27.74
2022-08-28T13:16:46.574Z,28.05
2022-08-28T13:19:26.207Z,28.00
2022-08-28T13:22:05.396Z,27.94
2022-08-28T13:24:31.682Z,28.05
2022-08-28T13:27:05.814Z,28.01
2022-08-28T13:29:33.086Z,28.44
2022-08-28T13:32:04.281Z,28.30
2022-08-28T13:34:33.505Z,27.90
2022-08-28T13:37:04.202Z,27.25
2022-08-28T13:39:35.652Z,27.19
2022-08-28T13:42:11.881Z,27.58
2022-08-28T13:44:48.699Z,28.48
2022-08-28T13:47:15.712Z,28.77
2022-08-28T13:49:42.741Z,28.09
2022-08-28T13:52:10.524Z,27.37
2022-08-28T13:54:41.591Z,27.52
2022-08-28T13:57:10.427Z,28.34
2022-08-28T13:59:36.799Z,28.95
2022-08-28T14:02:25.293Z,29.26
2022-08-28T14:04:51.874Z,28.88
2022-08-28T14:07:18.555Z,28.06
2022-08-28T14:09:45.165Z,27.66
2022-08-28T14:12:11.613Z,27.59
2022-08-28T14:14:38.716Z,27.36
2022-08-28T14:17:06.354Z,27.78
2022-08-28T14:19:33.132Z,28.07
2022-08-28T14:21:59.935Z,28.47
2022-08-28T14:24:27.108Z,28.79
2022-08-28T14:26:54.136Z,29.10
2022-08-28T14:29:21.244Z,29.05
2022-08-28T14:31:48.579Z,29.00
2022-08-28T14:34:20.559Z,28.98
2022-08-28T14:36:50.820Z,29.14
2022-08-28T14:39:17.671Z,28.68
2022-08-28T14:41:46.717Z,28.35
2022-08-28T14:44:13.448Z,28.51
2022-08-28T14:46:44.849Z,28.76
2022-08-28T14:49:13.715Z,29.01
2022-08-28T14:51:41.605Z,29.25
2022-08-28T14:54:10.540Z,28.84
2022-08-28T14:56:37.632Z,28.50
2022-08-28T14:59:05.927Z,27.71
2022-08-28T15:01:40.681Z,27.12
2022-08-28T15:04:12.179Z,26.81
2022-08-28T15:06:39.189Z,26.42
2022-08-28T15:09:05.720Z,26.17
2022-08-28T15:11:32.161Z,25.93
2022-08-28T15:13:58.662Z,25.71
2022-08-28T15:16:33.434Z,25.68
2022-08-28T15:19:00.611Z,25.69
2022-08-28T15:21:37.186Z,25.62
2022-08-28T15:24:06.133Z,25.72
2022-08-28T15:26:33.926Z,26.31
2022-08-28T15:29:03.691Z,26.73
2022-08-28T15:31:32.190Z,27.08
2022-08-28T15:34:03.613Z,27.03
2022-08-28T15:36:30.193Z,27.04
2022-08-28T15:39:17.456Z,26.56
2022-08-28T15:41:47.046Z,25.81
2022-08-28T15:44:15.081Z,25.20
2022-08-28T15:46:41.841Z,24.81
2022-08-28T15:49:09.349Z,25.11
2022-08-28T15:51:36.992Z,25.45
2022-08-28T15:54:04.170Z,25.47
2022-08-28T15:56:30.544Z,25.81
2022-08-28T15:58:56.940Z,25.92
2022-08-28T16:01:23.728Z,25.75
2022-08-28T16:03:50.113Z,25.77
2022-08-28T16:06:20.179Z,25.91
2022-08-28T16:08:47.993Z,25.81
2022-08-28T16:11:20.782Z,25.79
2022-08-28T16:13:47.604Z,25.94
2022-08-28T16:16:14.232Z,25.76
2022-08-28T16:18:41.081Z,25.63
2022-08-28T16:21:07.934Z,25.51
2022-08-28T16:23:34.710Z,25.47
2022-08-28T16:26:03.411Z,25.32
2022-08-28T16:28:31.648Z,25.32
2022-08-28T16:30:58.184Z,25.10
2022-08-28T16:33:26.890Z,24.92
2022-08-28T16:35:56.314Z,24.86
2022-08-28T16:38:23.222Z,24.74
2022-08-28T16:40:49.586Z,24.67
2022-08-28T16:43:16.217Z,24.46
2022-08-28T16:45:46.541Z,24.40
2022-08-28T16:48:14.871Z,24.66
2022-08-28T16:50:43.470Z,24.54
2022-08-28T16:53:10.633Z,24.30
2022-08-28T16:55:38.317Z,24.25
2022-08-28T16:58:05.495Z,24.03
2022-08-28T17:00:32.019Z,24.05
2022-08-28T17:02:58.470Z,24.03
2022-08-28T17:05:25.171Z,23.98
2022-08-28T17:07:51.939Z,23.91
2022-08-28T17:10:21.867Z,23.65
2022-08-28T17:12:48.794Z,23.68
2022-08-28T17:15:15.536Z,23.53
2022-08-28T17:17:42.663Z,23.69
2022-08-28T17:20:33.643Z,23.65
2022-08-28T17:23:00.761Z,23.47
2022-08-28T17:25:27.752Z,23.23
2022-08-28T17:27:54.884Z,23.09
2022-08-28T17:30:21.504Z,22.86
2022-08-28T17:32:48.185Z,22.76
2022-08-28T17:35:15.490Z,22.70
2022-08-28T17:37:42.364Z,22.65
2022-08-28T17:40:12.892Z,22.50
2022-08-28T17:42:39.426Z,22.41
2022-08-28T17:45:08.253Z,22.19
2022-08-28T17:47:34.683Z,22.00
2022-08-28T17:50:02.485Z,21.87
2022-08-28T17:52:29.480Z,21.76
2022-08-28T17:54:56.105Z,21.55
2022-08-28T17:57:24.093Z,21.44
2022-08-28T17:59:50.944Z,21.41
2022-08-28T18:02:17.718Z,21.30
2022-08-28T18:04:44.138Z,21.18
2022-08-28T18:07:11.180Z,21.02
2022-08-28T18:09:37.654Z,20.87
2022-08-28T18:12:06.251Z,20.82
2022-08-28T18:14:38.584Z,20.74
2022-08-28T18:17:05.188Z,20.58
2022-08-28T18:19:31.575Z,20.45
2022-08-28T18:21:57.930Z,20.39
2022-08-28T18:24:25.241Z,20.31
2022-08-28T18:26:53.961Z,20.22
2022-08-28T18:29:20.315Z,20.12
2022-08-28T18:31:46.835Z,20.01
2022-08-28T18:34:13.245Z,19.92
2022-08-28T18:36:41.440Z,19.84
2022-08-28T18:39:08.748Z,19.81
2022-08-28T18:41:43.302Z,19.75
2022-08-28T18:44:10.886Z,19.67
2022-08-28T18:46:37.326Z,19.62
2022-08-28T18:49:03.828Z,19.51
2022-08-28T18:51:32.256Z,19.39
2022-08-28T18:54:00.904Z,19.33
2022-08-28T18:56:30.299Z,19.28
2022-08-28T18:58:59.070Z,19.14
2022-08-28T19:01:25.704Z,19.12
2022-08-28T19:03:53.888Z,19.10
2022-08-28T19:06:20.396Z,19.07
2022-08-28T19:08:46.801Z,19.01
2022-08-28T19:11:14.001Z,18.86
2022-08-28T19:13:41.685Z,18.87
2022-08-28T19:16:09.280Z,18.81
2022-08-28T19:18:36.282Z,18.75
2022-08-28T19:21:08.757Z,18.75
2022-08-28T19:23:35.358Z,18.65
2022-08-28T19:26:01.795Z,18.60
2022-08-28T19:28:28.719Z,18.53
2022-08-28T19:30:55.269Z,18.50
2022-08-28T19:33:22.025Z,18.47
2022-08-28T19:35:48.437Z,18.39
2022-08-28T19:38:15.060Z,18.37
2022-08-28T19:40:41.632Z,18.31
2022-08-28T19:43:08.176Z,18.22
2022-08-28T19:45:43.496Z,18.18
2022-08-28T19:48:10.865Z,18.12
2022-08-28T19:50:38.630Z,18.11
2022-08-28T19:53:05.638Z,18.08
2022-08-28T19:55:32.528Z,17.99
2022-08-28T19:57:59.221Z,17.93
2022-08-28T20:00:32.861Z,17.87
2022-08-28T20:02:59.467Z,17.84
2022-08-28T20:05:25.886Z,17.81
2022-08-28T20:07:52.556Z,17.75
2022-08-28T20:10:19.636Z,17.71
2022-08-28T20:12:48.532Z,17.67
2022-08-28T20:15:18.237Z,17.64
2022-08-28T20:17:49.677Z,17.60
2022-08-28T20:20:20.554Z,17.58
2022-08-28T20:22:47.573Z,17.58
2022-08-28T20:25:15.455Z,17.54
2022-08-28T20:27:41.831Z,17.50
2022-08-28T20:30:11.111Z,17.41
2022-08-28T20:32:40.268Z,17.34
2022-08-28T20:35:08.989Z,17.33
2022-08-28T20:37:39.372Z,17.34
2022-08-28T20:40:14.065Z,17.27
2022-08-28T20:42:40.473Z,17.21
2022-08-28T20:45:07.126Z,17.20
2022-08-28T20:47:33.544Z,17.15
2022-08-28T20:50:00.040Z,17.10
2022-08-28T20:52:26.708Z,17.08
2022-08-28T20:54:53.094Z,17.02
2022-08-28T20:57:21.256Z,16.94
2022-08-28T20:59:47.852Z,16.91
2022-08-28T21:02:19.284Z,16.86
2022-08-28T21:04:47.526Z,16.82
2022-08-28T21:07:16.279Z,16.75
2022-08-28T21:10:05.787Z,16.73
2022-08-28T21:12:30.276Z,16.67
2022-08-28T21:14:57.275Z,16.64
2022-08-28T21:17:29.830Z,16.60
2022-08-28T21:20:10.631Z,16.60
2022-08-28T21:22:37.325Z,16.58
2022-08-28T21:25:06.253Z,16.57
2022-08-28T21:27:34.151Z,16.55
2022-08-28T21:30:01.357Z,16.57
2022-08-28T21:32:28.753Z,16.57
2022-08-28T21:34:55.459Z,16.57
2022-08-28T21:37:23.014Z,16.54
2022-08-28T21:39:49.594Z,16.53
2022-08-28T21:42:16.062Z,16.53
2022-08-28T21:44:45.527Z,16.54
2022-08-28T21:47:19.001Z,16.52
2022-08-28T21:49:48.942Z,16.57
2022-08-28T21:52:15.484Z,16.60
2022-08-28T21:54:41.842Z,16.64
2022-08-28T21:57:08.208Z,16.66
2022-08-28T21:59:38.035Z,16.66
2022-08-28T22:02:05.350Z,16.67
2022-08-28T22:04:32.166Z,16.65
2022-08-28T22:06:58.635Z,16.65
2022-08-28T22:09:24.996Z,16.65
2022-08-28T22:11:51.345Z,16.60
2022-08-28T22:14:17.697Z,16.55
2022-08-28T22:16:44.714Z,16.49
2022-08-28T22:19:11.114Z,16.43
2022-08-28T22:21:56.381Z,16.41
2022-08-28T22:24:23.484Z,16.35
2022-08-28T22:26:50.004Z,16.31
2022-08-28T22:29:24.252Z,16.23
2022-08-28T22:31:50.621Z,16.18
2022-08-28T22:34:16.975Z,16.14
2022-08-28T22:36:43.462Z,16.08
2022-08-28T22:39:09.947Z,16.02
2022-08-28T22:41:37.344Z,15.89
2022-08-28T22:44:05.376Z,15.79
2022-08-28T22:46:31.757Z,15.67
2022-08-28T22:48:58.903Z,15.51
2022-08-28T22:51:25.395Z,15.42
2022-08-28T22:53:52.356Z,15.36
2022-08-28T22:56:18.745Z,15.27
2022-08-28T22:58:45.155Z,15.22
2022-08-28T23:01:17.160Z,15.15
2022-08-28T23:03:45.313Z,15.07
2022-08-28T23:06:12.419Z,15.02
2022-08-28T23:08:38.853Z,14.96
2022-08-28T23:11:05.793Z,14.92
2022-08-28T23:13:33.093Z,14.89
2022-08-28T23:15:59.931Z,14.82
2022-08-28T23:18:26.483Z,14.81
2022-08-28T23:20:55.133Z,14.79
2022-08-28T23:23:23.319Z,14.76
2022-08-28T23:25:50.413Z,14.72
2022-08-28T23:28:17.305Z,14.68
2022-08-28T23:30:44.032Z,14.64
2022-08-28T23:33:19.756Z,14.58
2022-08-28T23:35:50.474Z,14.52
2022-08-28T23:38:16.874Z,14.48
2022-08-28T23:40:44.008Z,14.40
2022-08-28T23:43:10.949Z,14.33
2022-08-28T23:45:40.418Z,14.22
2022-08-28T23:48:07.905Z,14.17
2022-08-28T23:50:34.798Z,14.08
2022-08-28T23:53:02.015Z,14.02
2022-08-28T23:55:28.634Z,13.97
2022-08-28T23:57:55.494Z,13.92
